createdAt,value
2017-11-25T00:00:48.687Z,92.40
2017-11-25T00:03:16.238Z,92.60
2017-11-25T00:05:44.492Z,92.50
2017-11-25T00:08:11.974Z,92.40
2017-11-25T00:10:40.265Z,92.30
2017-11-25T00:13:07.747Z,92.20
2017-11-25T00:15:35.237Z,92.20
2017-11-25T00:18:02.717Z,92.00
2017-11-25T00:20:30.964Z,91.90
2017-11-25T00:22:58.441Z,91.90
2017-11-25T00:25:25.921Z,92.10
2017-11-25T00:27:53.516Z,92.10
2017-11-25T00:30:21.043Z,92.10
2017-11-25T00:32:48.527Z,92.10
2017-11-25T00:35:16.074Z,92.20
2017-11-25T00:37:43.614Z,92.20
2017-11-25T00:40:11.888Z,92.50
2017-11-25T00:42:40.154Z,93.00
2017-11-25T00:45:08.401Z,92.80
2017-11-25T00:47:35.925Z,92.80
2017-11-25T00:50:03.412Z,92.90
2017-11-25T00:52:30.934Z,92.90
2017-11-25T00:54:58.420Z,93.00
2017-11-25T00:57:25.912Z,93.10
2017-11-25T00:59:53.402Z,93.20
2017-11-25T01:02:20.897Z,93.50
2017-11-25T01:04:48.387Z,93.10
2017-11-25T01:07:15.866Z,93.10
2017-11-25T01:09:43.467Z,93.10
2017-11-25T01:12:10.955Z,93.10
2017-11-25T01:14:38.456Z,93.20
2017-11-25T01:17:05.944Z,93.20
2017-11-25T01:19:33.425Z,93.30
2017-11-25T01:22:00.920Z,93.20
2017-11-25T01:24:28.408Z,93.20
2017-11-25T01:26:55.905Z,93.30
2017-11-25T01:29:23.386Z,93.40
2017-11-25T01:31:51.637Z,93.40
2017-11-25T01:34:19.157Z,93.40
2017-11-25T01:36:46.649Z,93.40
2017-11-25T01:39:14.146Z,93.60
2017-11-25T01:41:41.644Z,93.60
2017-11-25T01:44:09.229Z,93.60
2017-11-25T01:46:36.727Z,93.60
2017-11-25T01:49:04.207Z,93.70
2017-11-25T01:51:31.694Z,93.70
2017-11-25T01:53:59.193Z,93.70
2017-11-25T01:56:26.689Z,93.70
2017-11-25T01:58:54.191Z,93.80
2017-11-25T02:01:22.432Z,93.70
2017-11-25T02:03:49.923Z,93.70
2017-11-25T02:06:18.176Z,93.80
2017-11-25T02:08:45.700Z,93.80
2017-11-25T02:11:13.207Z,93.80
2017-11-25T02:13:40.806Z,93.80
2017-11-25T02:16:08.329Z,93.70
2017-11-25T02:18:35.862Z,93.80
2017-11-25T02:21:03.368Z,93.90
2017-11-25T02:23:31.622Z,94.00
2017-11-25T02:25:59.118Z,94.00
2017-11-25T02:28:26.629Z,94.10
2017-11-25T02:30:54.127Z,94.00
2017-11-25T02:33:21.619Z,94.00
2017-11-25T02:35:49.135Z,94.00
2017-11-25T02:38:16.637Z,94.40
2017-11-25T02:40:44.153Z,94.30
2017-11-25T02:43:11.677Z,94.20
2017-11-25T02:45:39.947Z,94.40
2017-11-25T02:48:07.448Z,94.60
2017-11-25T02:50:34.929Z,94.30
2017-11-25T02:53:02.445Z,94.40
2017-11-25T02:55:30.698Z,94.30
2017-11-25T02:57:58.202Z,94.30
2017-11-25T03:00:25.693Z,94.50
2017-11-25T03:02:53.190Z,94.50
2017-11-25T03:05:21.474Z,94.20
2017-11-25T03:07:49.730Z,94.20
2017-11-25T03:10:17.218Z,94.20
2017-11-25T03:12:44.819Z,94.30
2017-11-25T03:15:12.300Z,94.30
2017-11-25T03:17:39.805Z,94.00
2017-11-25T03:20:07.316Z,94.10
2017-11-25T03:22:34.832Z,94.10
2017-11-25T03:25:02.321Z,94.00
2017-11-25T03:27:29.813Z,94.00
2017-11-25T03:29:58.605Z,94.10
2017-11-25T03:32:26.125Z,94.00
2017-11-25T03:34:53.622Z,94.00
2017-11-25T03:37:21.882Z,94.00
2017-11-25T03:39:49.442Z,94.00
2017-11-25T03:42:16.960Z,93.90
2017-11-25T03:44:44.470Z,93.80
2017-11-25T03:47:12.718Z,93.90
2017-11-25T03:49:40.212Z,93.90
2017-11-25T03:52:08.464Z,93.90
2017-11-25T03:54:36.752Z,93.90
2017-11-25T03:57:05.050Z,93.90
2017-11-25T03:59:32.562Z,93.90
2017-11-25T04:02:00.067Z,93.90
2017-11-25T04:04:27.557Z,93.90
2017-11-25T04:06:55.061Z,94.00
2017-11-25T04:09:23.360Z,94.10
2017-11-25T04:11:50.849Z,94.00
2017-11-25T04:14:18.341Z,93.90
2017-11-25T04:16:45.824Z,94.00
2017-11-25T04:19:13.334Z,94.00
2017-11-25T04:21:40.856Z,94.00
2017-11-25T04:24:09.339Z,94.00
2017-11-25T04:26:36.862Z,94.00
2017-11-25T04:29:04.348Z,94.00
2017-11-25T04:31:32.048Z,94.00
2017-11-25T04:33:59.626Z,94.00
2017-11-25T04:36:27.110Z,94.00
2017-11-25T04:38:55.380Z,94.10
2017-11-25T04:41:23.699Z,94.00
2017-11-25T04:43:51.286Z,94.00
2017-11-25T04:46:18.796Z,94.00
2017-11-25T04:48:46.333Z,94.00
2017-11-25T04:51:14.589Z,94.30
2017-11-25T04:53:42.073Z,94.00
2017-11-25T04:56:10.351Z,94.00
2017-11-25T04:58:37.878Z,94.00
2017-11-25T05:01:05.362Z,94.00
2017-11-25T05:03:33.626Z,93.90
2017-11-25T05:06:01.130Z,93.90
2017-11-25T05:08:28.639Z,93.90
2017-11-25T05:10:56.118Z,94.00
2017-11-25T05:13:24.375Z,93.80
2017-11-25T05:15:51.877Z,93.80
2017-11-25T05:18:19.357Z,93.80
2017-11-25T05:20:46.882Z,93.80
2017-11-25T05:23:14.370Z,93.80
2017-11-25T05:25:41.848Z,93.80
2017-11-25T05:28:09.352Z,93.90
2017-11-25T05:30:36.840Z,93.90
2017-11-25T05:33:04.349Z,93.90
2017-11-25T05:35:31.825Z,94.00
2017-11-25T05:38:03.079Z,93.90
2017-11-25T05:40:30.574Z,93.90
2017-11-25T05:42:58.066Z,94.00
2017-11-25T05:45:26.362Z,94.00
2017-11-25T05:47:54.609Z,94.00
2017-11-25T05:50:22.097Z,93.90
2017-11-25T05:52:50.354Z,94.00
2017-11-25T05:55:17.828Z,94.00
2017-11-25T05:57:46.097Z,94.00
2017-11-25T06:00:14.357Z,94.10
2017-11-25T06:02:41.876Z,94.10
2017-11-25T06:05:09.369Z,94.20
2017-11-25T06:07:36.865Z,94.10
2017-11-25T06:10:04.380Z,94.10
2017-11-25T06:12:31.886Z,94.10
2017-11-25T06:14:59.380Z,94.20
2017-11-25T06:17:27.383Z,94.30
2017-11-25T06:19:54.912Z,94.30
2017-11-25T06:22:22.418Z,94.30
2017-11-25T06:24:49.910Z,94.20
2017-11-25T06:27:17.406Z,94.30
2017-11-25T06:29:44.904Z,94.20
2017-11-25T06:32:12.396Z,94.30
2017-11-25T06:34:39.916Z,94.30
2017-11-25T06:37:07.411Z,94.40
2017-11-25T06:39:34.901Z,94.40
2017-11-25T06:42:02.400Z,94.30
2017-11-25T06:44:29.906Z,94.40
2017-11-25T06:46:57.419Z,94.40
2017-11-25T06:49:24.911Z,94.50
2017-11-25T06:51:52.410Z,94.50
2017-11-25T06:54:20.679Z,94.50
2017-11-25T06:56:48.935Z,94.60
2017-11-25T06:59:16.474Z,94.60
2017-11-25T07:01:43.957Z,94.60
2017-11-25T07:04:11.452Z,94.60
2017-11-25T07:06:38.957Z,94.60
2017-11-25T07:09:06.446Z,94.60
2017-11-25T07:11:34.729Z,94.70
2017-11-25T07:14:02.980Z,94.70
2017-11-25T07:16:30.470Z,94.60
2017-11-25T07:18:57.984Z,94.70
2017-11-25T07:21:25.484Z,94.60
2017-11-25T07:23:53.763Z,94.70
2017-11-25T07:26:21.297Z,94.70
2017-11-25T07:28:48.806Z,94.70
2017-11-25T07:31:16.305Z,94.70
2017-11-25T07:33:43.797Z,94.70
2017-11-25T07:36:11.357Z,94.60
2017-11-25T07:38:38.845Z,94.60
2017-11-25T07:41:06.334Z,94.60
2017-11-25T07:43:33.835Z,94.60
2017-11-25T07:46:01.322Z,94.70
2017-11-25T07:48:28.824Z,94.70
2017-11-25T07:50:57.081Z,95.30
2017-11-25T07:53:24.568Z,95.30
2017-11-25T07:55:52.859Z,96.00
2017-11-25T07:58:20.344Z,96.00
2017-11-25T08:00:47.845Z,95.90
2017-11-25T08:03:15.334Z,95.80
2017-11-25T08:05:42.822Z,95.80
2017-11-25T08:08:10.326Z,95.90
2017-11-25T08:10:38.802Z,95.60
2017-11-25T08:13:06.377Z,95.50
2017-11-25T08:15:34.666Z,95.60
2017-11-25T08:18:02.154Z,95.60
2017-11-25T08:20:29.681Z,95.50
2017-11-25T08:22:57.168Z,95.60
2017-11-25T08:25:24.783Z,95.70
2017-11-25T08:27:53.100Z,95.50
2017-11-25T08:30:20.589Z,95.50
2017-11-25T08:32:48.188Z,95.70
2017-11-25T08:35:16.474Z,94.90
2017-11-25T08:37:44.107Z,94.90
2017-11-25T08:40:12.479Z,95.30
2017-11-25T08:42:40.175Z,95.30
2017-11-25T08:45:07.679Z,94.60
2017-11-25T08:47:35.184Z,94.90
2017-11-25T08:50:03.458Z,95.10
2017-11-25T08:52:31.810Z,95.00
2017-11-25T08:54:59.526Z,95.00
2017-11-25T08:57:27.052Z,95.10
2017-11-25T08:59:55.309Z,94.90
2017-11-25T09:02:22.817Z,94.90
2017-11-25T09:04:50.363Z,94.70
2017-11-25T09:07:17.957Z,94.60
2017-11-25T09:09:45.450Z,94.50
2017-11-25T09:12:12.935Z,94.70
2017-11-25T09:14:40.491Z,94.80
2017-11-25T09:17:08.769Z,94.50
2017-11-25T09:19:36.257Z,94.50
2017-11-25T09:22:03.814Z,94.40
2017-11-25T09:24:31.334Z,94.40
2017-11-25T09:26:59.622Z,94.50
2017-11-25T09:29:28.018Z,94.50
2017-11-25T09:31:55.540Z,94.40
2017-11-25T09:34:23.855Z,94.50
2017-11-25T09:36:51.349Z,94.50
2017-11-25T09:39:18.983Z,94.50
2017-11-25T09:41:46.488Z,94.50
2017-11-25T09:44:14.815Z,94.50
2017-11-25T09:46:42.314Z,94.50
2017-11-25T09:49:09.826Z,94.40
2017-11-25T09:51:37.354Z,94.40
2017-11-25T09:54:05.610Z,94.50
2017-11-25T09:56:33.102Z,94.50
2017-11-25T09:59:00.619Z,94.50
2017-11-25T10:01:28.118Z,94.60
2017-11-25T10:03:56.392Z,94.60
2017-11-25T10:06:23.974Z,94.60
2017-11-25T10:08:51.588Z,94.60
2017-11-25T10:11:19.172Z,94.50
2017-11-25T10:13:47.441Z,94.50
2017-11-25T10:16:15.721Z,94.60
2017-11-25T10:18:43.223Z,94.60
2017-11-25T10:21:10.721Z,94.60
2017-11-25T10:23:38.982Z,94.70
2017-11-25T10:26:06.470Z,94.70
2017-11-25T10:28:34.117Z,94.60
2017-11-25T10:31:02.384Z,94.50
2017-11-25T10:33:30.069Z,94.50
2017-11-25T10:35:57.634Z,94.60
2017-11-25T10:38:25.188Z,94.60
2017-11-25T10:40:52.718Z,94.60
2017-11-25T10:43:20.329Z,94.60
2017-11-25T10:45:47.894Z,94.90
2017-11-25T10:48:15.390Z,94.70
2017-11-25T10:50:42.877Z,94.70
2017-11-25T10:53:11.158Z,94.80
2017-11-25T10:55:39.414Z,94.60
2017-11-25T10:58:06.902Z,94.60
2017-11-25T11:00:34.582Z,94.50
2017-11-25T11:03:02.077Z,94.70
2017-11-25T11:05:29.711Z,94.70
2017-11-25T11:07:57.251Z,94.60
2017-11-25T11:10:24.735Z,94.60
2017-11-25T11:12:52.234Z,94.60
2017-11-25T11:15:20.498Z,94.60
2017-11-25T11:17:48.086Z,94.60
2017-11-25T11:20:16.333Z,94.60
2017-11-25T11:22:43.830Z,94.50
2017-11-25T11:25:11.377Z,94.50
2017-11-25T11:27:39.648Z,94.60
2017-11-25T11:30:07.966Z,94.80
2017-11-25T11:32:35.480Z,94.80
2017-11-25T11:35:03.766Z,94.60
2017-11-25T11:37:32.035Z,94.60
2017-11-25T11:40:00.293Z,94.50
2017-11-25T11:42:27.879Z,94.50
2017-11-25T11:44:56.187Z,94.70
2017-11-25T11:47:23.672Z,94.70
2017-11-25T11:49:51.276Z,95.10
2017-11-25T11:52:19.520Z,94.90
2017-11-25T11:54:47.029Z,94.90
2017-11-25T11:57:14.525Z,94.60
2017-11-25T11:59:42.051Z,94.50
2017-11-25T12:02:09.552Z,94.50
2017-11-25T12:04:37.213Z,94.80
2017-11-25T12:07:04.831Z,94.50
2017-11-25T12:09:32.341Z,94.50
2017-11-25T12:11:59.829Z,94.50
2017-11-25T12:14:27.385Z,94.30
2017-11-25T12:16:54.873Z,94.30
2017-11-25T12:19:22.383Z,94.30
2017-11-25T12:21:50.649Z,93.90
2017-11-25T12:24:18.234Z,93.90
2017-11-25T12:26:46.744Z,93.80
2017-11-25T12:29:14.274Z,93.80
2017-11-25T12:31:41.842Z,94.00
2017-11-25T12:34:09.424Z,94.10
2017-11-25T12:36:36.939Z,94.00
2017-11-25T12:39:04.689Z,94.30
2017-11-25T12:41:32.207Z,94.20
2017-11-25T12:43:59.717Z,94.30
2017-11-25T12:46:27.980Z,94.20
2017-11-25T12:48:55.467Z,94.20
2017-11-25T12:51:23.743Z,94.30
2017-11-25T12:53:52.033Z,94.80
2017-11-25T12:56:19.566Z,94.50
2017-11-25T12:58:47.860Z,94.20
2017-11-25T13:01:15.345Z,94.20
2017-11-25T13:03:43.614Z,94.60
2017-11-25T13:06:11.152Z,94.50
2017-11-25T13:08:39.526Z,94.50
2017-11-25T13:11:07.782Z,94.10
2017-11-25T13:13:36.058Z,94.10
2017-11-25T13:16:03.550Z,94.10
2017-11-25T13:18:31.700Z,94.10
2017-11-25T13:21:00.099Z,93.80
2017-11-25T13:23:27.654Z,93.80
2017-11-25T13:25:55.150Z,93.60
2017-11-25T13:28:22.661Z,93.50
2017-11-25T13:30:50.944Z,93.60
2017-11-25T13:33:18.505Z,93.60
2017-11-25T13:35:46.107Z,93.60
2017-11-25T13:38:13.713Z,93.50
2017-11-25T13:40:41.228Z,93.40
2017-11-25T13:43:08.709Z,93.10
2017-11-25T13:45:36.321Z,93.20
2017-11-25T13:48:03.876Z,93.20
2017-11-25T13:50:31.371Z,93.20
2017-11-25T13:52:58.876Z,93.20
2017-11-25T13:55:26.372Z,93.00
2017-11-25T13:57:53.882Z,93.10
2017-11-25T14:00:22.138Z,93.20
2017-11-25T14:02:49.720Z,93.10
2017-11-25T14:05:17.260Z,93.30
2017-11-25T14:07:44.740Z,93.20
2017-11-25T14:10:12.994Z,92.60
2017-11-25T14:12:41.268Z,92.60
2017-11-25T14:15:08.752Z,92.50
2017-11-25T14:17:36.317Z,92.70
2017-11-25T14:20:03.899Z,92.70
2017-11-25T14:22:31.403Z,92.80
2017-11-25T14:24:58.893Z,92.80
2017-11-25T14:27:26.446Z,92.50
2017-11-25T14:29:54.706Z,92.50
2017-11-25T14:32:22.998Z,92.70
2017-11-25T14:34:51.277Z,92.60
2017-11-25T14:37:18.761Z,92.60
2017-11-25T14:39:46.284Z,92.50
2017-11-25T14:42:14.545Z,92.70
2017-11-25T14:44:42.838Z,93.00
2017-11-25T14:47:11.110Z,92.70
2017-11-25T14:49:39.387Z,92.60
2017-11-25T14:52:07.634Z,92.70
2017-11-25T14:54:35.147Z,92.70
2017-11-25T14:57:02.636Z,92.80
2017-11-25T14:59:30.241Z,92.80
2017-11-25T15:01:58.526Z,92.90
2017-11-25T15:04:26.792Z,92.80
2017-11-25T15:06:55.056Z,92.90
2017-11-25T15:09:22.629Z,92.80
2017-11-25T15:11:50.907Z,93.00
2017-11-25T15:14:19.182Z,93.20
2017-11-25T15:16:47.463Z,93.10
2017-11-25T15:19:15.722Z,93.20
2017-11-25T15:21:44.027Z,93.10
2017-11-25T15:24:11.528Z,93.10
2017-11-25T15:26:39.010Z,93.00
2017-11-25T15:29:06.592Z,93.10
2017-11-25T15:31:34.153Z,93.30
2017-11-25T15:34:01.665Z,93.20
2017-11-25T15:36:29.169Z,93.20
2017-11-25T15:38:57.416Z,93.00
2017-11-25T15:41:25.013Z,93.00
2017-11-25T15:43:52.542Z,92.70
2017-11-25T15:46:20.132Z,92.70
2017-11-25T15:48:47.637Z,93.00
2017-11-25T15:51:15.145Z,92.70
2017-11-25T15:53:42.628Z,92.70
2017-11-25T15:56:10.304Z,92.60
2017-11-25T15:58:37.813Z,92.80
2017-11-25T16:01:06.089Z,92.60
2017-11-25T16:03:34.342Z,92.40
2017-11-25T16:06:01.925Z,92.40
2017-11-25T16:08:30.185Z,92.60
2017-11-25T16:10:57.665Z,92.60
2017-11-25T16:13:26.038Z,92.00
2017-11-25T16:15:54.288Z,91.90
2017-11-25T16:18:21.880Z,91.90
2017-11-25T16:20:49.380Z,91.90
2017-11-25T16:23:16.858Z,91.80
2017-11-25T16:25:44.387Z,91.60
2017-11-25T16:28:11.905Z,91.70
2017-11-25T16:30:40.178Z,91.70
2017-11-25T16:33:08.465Z,91.50
2017-11-25T16:35:42.741Z,91.20
2017-11-25T16:38:10.315Z,91.20
2017-11-25T16:40:37.879Z,91.30
2017-11-25T16:43:05.487Z,91.40
2017-11-25T16:45:32.992Z,91.50
2017-11-25T16:48:12.462Z,91.40
2017-11-25T16:50:39.959Z,91.40
2017-11-25T16:53:07.445Z,91.50
2017-11-25T16:55:35.839Z,91.60
2017-11-25T16:58:04.145Z,92.20
2017-11-25T17:00:31.713Z,92.20
2017-11-25T17:02:59.214Z,92.20
2017-11-25T17:05:28.265Z,91.80
2017-11-25T17:07:55.803Z,91.80
2017-11-25T17:10:23.361Z,91.60
2017-11-25T17:12:50.885Z,91.80
2017-11-25T17:15:18.485Z,91.60
2017-11-25T17:17:45.967Z,91.70
2017-11-25T17:20:13.498Z,91.80
2017-11-25T17:22:41.873Z,91.80
2017-11-25T17:25:10.156Z,91.50
2017-11-25T17:27:37.722Z,91.50
2017-11-25T17:30:05.267Z,91.20
2017-11-25T17:32:33.599Z,91.60
2017-11-25T17:35:01.269Z,91.60
2017-11-25T17:37:28.876Z,91.20
2017-11-25T17:39:56.392Z,91.40
2017-11-25T17:42:23.872Z,91.50
2017-11-25T17:44:52.138Z,91.60
2017-11-25T17:47:20.696Z,91.60
2017-11-25T17:49:48.217Z,91.70
2017-11-25T17:52:15.701Z,91.60
2017-11-25T17:54:43.221Z,91.50
2017-11-25T17:57:10.772Z,91.60
2017-11-25T17:59:39.032Z,91.60
2017-11-25T18:02:06.585Z,91.60
2017-11-25T18:04:34.117Z,91.40
2017-11-25T18:07:01.635Z,91.70
2017-11-25T18:09:29.158Z,91.80
2017-11-25T18:11:56.740Z,91.70
2017-11-25T18:14:25.065Z,91.60
2017-11-25T18:16:52.662Z,91.60
2017-11-25T18:19:20.148Z,91.70
2017-11-25T18:21:47.713Z,91.70
2017-11-25T18:24:15.329Z,91.60
2017-11-25T18:26:42.852Z,91.80
2017-11-25T18:29:10.493Z,91.50
2017-11-25T18:31:38.094Z,91.40
2017-11-25T18:34:05.623Z,91.50
2017-11-25T18:36:33.126Z,91.50
2017-11-25T18:39:00.642Z,91.60
2017-11-25T18:41:28.137Z,91.60
2017-11-25T18:43:55.642Z,91.80
2017-11-25T18:46:23.194Z,91.90
2017-11-25T18:48:50.691Z,91.70
2017-11-25T18:51:18.236Z,91.70
2017-11-25T18:53:45.732Z,91.70
2017-11-25T18:56:14.201Z,91.90
2017-11-25T18:58:41.697Z,91.90
2017-11-25T19:01:09.966Z,91.70
2017-11-25T19:03:38.234Z,92.00
2017-11-25T19:06:06.565Z,91.80
2017-11-25T19:08:34.054Z,91.90
2017-11-25T19:11:01.686Z,91.90
2017-11-25T19:13:29.245Z,91.90
2017-11-25T19:15:56.868Z,92.50
2017-11-25T19:18:25.196Z,92.50
2017-11-25T19:20:52.707Z,92.50
2017-11-25T19:23:20.225Z,92.90
2017-11-25T19:25:47.703Z,92.50
2017-11-25T19:28:15.244Z,93.10
2017-11-25T19:30:42.747Z,93.10
2017-11-25T19:33:10.297Z,93.00
2017-11-25T19:35:38.579Z,92.70
2017-11-25T19:38:06.859Z,92.90
2017-11-25T19:40:35.231Z,92.50
2017-11-25T19:43:03.645Z,92.20
2017-11-25T19:45:31.130Z,92.20
2017-11-25T19:47:58.812Z,92.60
2017-11-25T19:50:26.391Z,92.40
2017-11-25T19:52:54.831Z,92.40
2017-11-25T19:55:22.346Z,92.30
2017-11-25T19:57:49.893Z,92.30
2017-11-25T20:00:17.454Z,92.50
2017-11-25T20:02:45.025Z,92.30
2017-11-25T20:05:12.607Z,91.60
2017-11-25T20:07:40.097Z,92.00
2017-11-25T20:10:07.613Z,91.90
2017-11-25T20:12:35.117Z,92.10
2017-11-25T20:15:02.603Z,91.90
2017-11-25T20:17:30.883Z,91.50
2017-11-25T20:19:59.129Z,91.90
2017-11-25T20:22:27.383Z,92.10
2017-11-25T20:24:54.893Z,92.10
2017-11-25T20:27:22.402Z,91.80
2017-11-25T20:29:49.916Z,91.90
2017-11-25T20:32:17.486Z,92.00
2017-11-25T20:34:44.992Z,92.00
2017-11-25T20:37:12.538Z,92.00
2017-11-25T20:39:40.150Z,92.00
2017-11-25T20:42:08.628Z,92.10
2017-11-25T20:44:36.994Z,92.20
2017-11-25T20:47:05.241Z,92.30
2017-11-25T20:49:32.761Z,92.30
2017-11-25T20:52:00.261Z,92.40
2017-11-25T20:54:27.773Z,92.40
2017-11-25T20:56:55.269Z,92.40
2017-11-25T20:59:22.777Z,92.40
2017-11-25T21:01:50.462Z,92.40
2017-11-25T21:04:17.976Z,92.30
2017-11-25T21:06:46.396Z,92.30
2017-11-25T21:09:13.963Z,92.30
2017-11-25T21:11:41.469Z,92.40
2017-11-25T21:14:08.955Z,92.30
2017-11-25T21:16:36.499Z,92.10
2017-11-25T21:19:04.791Z,92.50
2017-11-25T21:21:32.276Z,92.50
2017-11-25T21:23:59.857Z,92.50
2017-11-25T21:26:27.399Z,92.60
2017-11-25T21:28:54.928Z,92.70
2017-11-25T21:31:22.473Z,92.60
2017-11-25T21:33:50.799Z,92.60
2017-11-25T21:36:18.421Z,92.50
2017-11-25T21:38:45.916Z,92.60
2017-11-25T21:41:13.438Z,92.60
2017-11-25T21:43:41.014Z,92.60
2017-11-25T21:46:08.616Z,92.60
2017-11-25T21:48:36.301Z,92.60
2017-11-25T21:51:04.680Z,92.60
2017-11-25T21:53:32.227Z,92.50
2017-11-25T21:55:59.841Z,92.60
2017-11-25T21:58:27.378Z,92.40
2017-11-25T22:00:54.879Z,92.50
2017-11-25T22:03:22.487Z,92.40
2017-11-25T22:05:50.750Z,92.40
2017-11-25T22:08:18.249Z,92.40
2017-11-25T22:10:45.784Z,92.20
2017-11-25T22:13:14.072Z,92.40
2017-11-25T22:15:41.939Z,92.40
2017-11-25T22:18:09.445Z,92.20
2017-11-25T22:20:37.093Z,92.30
2017-11-25T22:23:04.750Z,92.40
2017-11-25T22:25:32.272Z,92.10
2017-11-25T22:27:59.871Z,91.90
2017-11-25T22:30:28.186Z,91.90
2017-11-25T22:32:56.617Z,91.70
2017-11-25T22:35:25.018Z,91.90
2017-11-25T22:37:53.427Z,92.00
2017-11-25T22:40:21.746Z,92.00
2017-11-25T22:42:49.268Z,92.00
2017-11-25T22:45:17.542Z,92.00
2017-11-25T22:47:45.812Z,92.00
2017-11-25T22:50:14.149Z,92.00
2017-11-25T22:52:41.654Z,92.00
2017-11-25T22:55:09.944Z,92.00
2017-11-25T22:57:37.515Z,92.00
2017-11-25T23:00:05.042Z,91.90
2017-11-25T23:02:33.317Z,91.90
2017-11-25T23:05:01.646Z,91.90
2017-11-25T23:07:29.141Z,91.80
2017-11-25T23:09:56.666Z,91.90
2017-11-25T23:12:24.287Z,92.00
2017-11-25T23:14:52.585Z,92.20
2017-11-25T23:17:20.947Z,92.30
2017-11-25T23:19:48.512Z,92.30
2017-11-25T23:22:16.021Z,92.40
2017-11-25T23:24:43.565Z,92.70
2017-11-25T23:27:11.080Z,92.40
2017-11-25T23:29:39.350Z,92.40
2017-11-25T23:32:07.662Z,92.30
2017-11-25T23:34:35.221Z,92.30
2017-11-25T23:37:03.594Z,92.20
2017-11-25T23:39:31.091Z,92.20
2017-11-25T23:41:58.600Z,92.20
2017-11-25T23:44:26.109Z,92.20
2017-11-25T23:46:53.633Z,92.20
2017-11-25T23:49:21.173Z,92.30
2017-11-25T23:51:48.820Z,92.30
2017-11-25T23:54:17.087Z,92.40
2017-11-25T23:56:45.384Z,92.40
2017-11-25T23:59:12.925Z,92.40
